createdAt,value
2022-08-23T00:03:43.515Z,4.50
2022-08-23T00:09:05.768Z,4.15
2022-08-23T00:14:32.088Z,4.40
2022-08-23T00:19:53.081Z,4.10
2022-08-23T00:25:15.602Z,4.00
2022-08-23T00:30:37.127Z,3.42
2022-08-23T00:35:58.243Z,3.80
2022-08-23T00:41:18.754Z,3.47
2022-08-23T00:47:02.474Z,3.88
2022-08-23T00:52:38.637Z,5.03
2022-08-23T00:58:00.099Z,2.47
2022-08-23T01:03:24.745Z,5.53
2022-08-23T01:08:54.442Z,4.85
2022-08-23T01:14:21.259Z,5.60
2022-08-23T01:19:57.380Z,4.53
2022-08-23T01:25:21.670Z,5.55
2022-08-23T01:30:44.594Z,6.40
2022-08-23T01:36:09.818Z,5.57
2022-08-23T01:41:31.969Z,3.33
2022-08-23T01:46:54.991Z,5.85
2022-08-23T01:52:19.601Z,4.80
2022-08-23T01:57:42.570Z,4.10
2022-08-23T02:03:08.238Z,4.70
2022-08-23T02:08:47.932Z,4.15
2022-08-23T02:14:13.545Z,4.95
2022-08-23T02:19:44.030Z,4.68
2022-08-23T02:25:05.575Z,4.72
2022-08-23T02:30:26.369Z,4.75
2022-08-23T02:35:49.100Z,4.40
2022-08-23T02:41:10.853Z,4.80
2022-08-23T02:46:31.782Z,4.07
2022-08-23T02:51:53.824Z,4.93
2022-08-23T02:57:14.668Z,4.15
2022-08-23T03:02:36.743Z,3.55
2022-08-23T03:07:57.991Z,4.15
2022-08-23T03:13:20.872Z,4.50
2022-08-23T03:18:44.585Z,4.80
2022-08-23T03:24:10.226Z,5.10
2022-08-23T03:29:33.386Z,4.80
2022-08-23T03:34:56.860Z,4.82
2022-08-23T03:40:18.425Z,5.10
2022-08-23T03:45:39.323Z,5.90
2022-08-23T03:51:02.274Z,5.75
2022-08-23T03:56:28.565Z,5.70
2022-08-23T04:01:49.493Z,6.32
2022-08-23T04:07:12.167Z,5.65
2022-08-23T04:12:33.505Z,6.95
2022-08-23T04:17:54.470Z,6.55
2022-08-23T04:23:16.846Z,6.47
2022-08-23T04:28:44.452Z,5.60
2022-08-23T04:34:08.418Z,6.07
2022-08-23T04:39:30.141Z,5.55
2022-08-23T04:44:52.333Z,5.45
2022-08-23T04:50:13.680Z,5.32
2022-08-23T04:55:54.843Z,5.45
2022-08-23T05:01:16.341Z,5.78
2022-08-23T05:06:39.438Z,3.72
2022-08-23T05:12:00.112Z,5.18
2022-08-23T05:17:22.581Z,4.50
2022-08-23T05:22:43.400Z,5.50
2022-08-23T05:28:34.999Z,4.15
2022-08-23T05:33:57.353Z,3.90
2022-08-23T05:39:35.902Z,5.37
2022-08-23T05:44:58.784Z,4.28
2022-08-23T05:50:22.618Z,3.13
2022-08-23T05:55:44.480Z,3.70
2022-08-23T06:01:14.663Z,4.32
2022-08-23T06:06:37.539Z,3.70
2022-08-23T06:12:00.100Z,2.90
2022-08-23T06:17:21.123Z,2.65
2022-08-23T06:22:42.226Z,2.90
2022-08-23T06:28:03.231Z,2.30
2022-08-23T06:33:26.936Z,2.58
2022-08-23T06:39:28.451Z,2.47
2022-08-23T06:44:56.416Z,2.50
2022-08-23T06:50:36.234Z,2.67
2022-08-23T06:56:15.690Z,2.90
2022-08-23T07:01:50.926Z,2.05
2022-08-23T07:07:44.406Z,2.15
2022-08-23T07:13:07.136Z,2.00
2022-08-23T07:18:28.147Z,2.20
2022-08-23T07:23:48.961Z,3.20
2022-08-23T07:29:11.412Z,3.85
2022-08-23T07:34:33.627Z,3.65
2022-08-23T07:39:58.488Z,3.22
2022-08-23T07:45:23.065Z,2.80
2022-08-23T07:50:57.949Z,2.30
2022-08-23T07:56:22.157Z,2.55
2022-08-23T08:01:58.733Z,2.40
2022-08-23T08:07:21.629Z,3.25
2022-08-23T08:12:50.878Z,2.80
2022-08-23T08:18:12.931Z,3.30
2022-08-23T08:23:53.260Z,3.22
2022-08-23T08:29:32.566Z,3.25
2022-08-23T08:34:53.431Z,3.00
2022-08-23T08:40:19.745Z,3.20
2022-08-23T08:45:58.846Z,3.08
2022-08-23T08:51:49.425Z,3.33
2022-08-23T08:57:15.506Z,3.92
2022-08-23T09:02:39.797Z,3.03
2022-08-23T09:08:02.739Z,3.38
2022-08-23T09:13:35.932Z,3.70
2022-08-23T09:18:57.089Z,4.57
2022-08-23T09:24:18.068Z,6.18
2022-08-23T09:30:01.208Z,5.88
2022-08-23T09:35:25.730Z,6.90
2022-08-23T09:40:58.588Z,8.32
2022-08-23T09:46:39.207Z,6.57
2022-08-23T09:52:12.856Z,8.70
2022-08-23T09:57:48.433Z,9.05
2022-08-23T10:03:26.979Z,9.25
2022-08-23T10:08:58.401Z,9.30
2022-08-23T10:14:23.476Z,9.00
2022-08-23T10:20:15.018Z,9.52
2022-08-23T10:25:42.543Z,10.23
2022-08-23T10:31:09.356Z,9.02
2022-08-23T10:37:07.944Z,9.55
2022-08-23T10:43:07.596Z,8.40
2022-08-23T10:48:52.230Z,9.60
2022-08-23T10:54:18.831Z,10.77
2022-08-23T10:59:40.715Z,11.27
2022-08-23T11:05:07.501Z,10.32
2022-08-23T11:10:53.746Z,12.10
2022-08-23T11:16:31.347Z,11.00
2022-08-23T11:22:15.220Z,10.30
2022-08-23T11:27:41.780Z,11.13
2022-08-23T11:33:17.501Z,10.00
2022-08-23T11:38:47.919Z,10.40
2022-08-23T11:44:13.426Z,10.38
2022-08-23T11:50:12.732Z,10.00
2022-08-23T11:56:04.177Z,10.25
2022-08-23T12:01:45.616Z,10.02
2022-08-23T12:07:12.925Z,9.27
2022-08-23T12:12:39.466Z,10.90
2022-08-23T12:18:12.863Z,9.68
2022-08-23T12:23:49.611Z,10.10
2022-08-23T12:29:19.028Z,8.85
2022-08-23T12:40:02.866Z,9.73
2022-08-23T12:45:23.744Z,8.05
2022-08-23T12:50:51.649Z,9.50
2022-08-23T12:56:20.235Z,9.75
2022-08-23T13:01:42.046Z,8.52
2022-08-23T13:07:07.046Z,10.23
2022-08-23T13:12:28.424Z,10.15
2022-08-23T13:17:59.573Z,8.15
2022-08-23T13:23:28.826Z,8.60
2022-08-23T13:29:03.049Z,10.35
2022-08-23T13:34:40.208Z,10.10
2022-08-23T13:40:15.838Z,11.07
2022-08-23T13:45:44.672Z,10.52
2022-08-23T13:51:26.782Z,10.80
2022-08-23T13:56:50.995Z,10.30
2022-08-23T14:02:14.365Z,10.02
2022-08-23T14:07:36.097Z,11.07
2022-08-23T14:12:57.062Z,9.95
2022-08-23T14:18:18.994Z,9.75
2022-08-23T14:23:39.757Z,9.55
2022-08-23T14:29:00.885Z,9.32
2022-08-23T14:34:22.300Z,9.82
2022-08-23T14:39:43.303Z,9.45
2022-08-23T14:45:05.499Z,9.35
2022-08-23T14:50:27.810Z,9.50
2022-08-23T14:56:12.267Z,9.35
2022-08-23T15:01:34.785Z,9.90
2022-08-23T15:07:16.800Z,9.50
2022-08-23T15:18:20.288Z,9.77
2022-08-23T15:23:45.106Z,9.57
2022-08-23T15:29:06.231Z,8.48
2022-08-23T15:34:27.362Z,8.90
2022-08-23T15:39:50.854Z,8.57
2022-08-23T15:45:11.601Z,8.95
2022-08-23T15:50:34.540Z,7.68
2022-08-23T15:55:56.433Z,8.05
2022-08-23T16:01:19.860Z,8.77
2022-08-23T16:06:45.196Z,7.28
2022-08-23T16:12:06.662Z,8.07
2022-08-23T16:17:27.474Z,8.30
2022-08-23T16:22:48.484Z,8.52
2022-08-23T16:28:09.549Z,8.75
2022-08-23T16:33:30.185Z,8.70
2022-08-23T16:38:51.330Z,8.88
2022-08-23T16:44:12.614Z,8.23
2022-08-23T16:49:34.797Z,8.13
2022-08-23T16:54:55.562Z,8.57
2022-08-23T17:00:16.698Z,7.45
2022-08-23T17:05:38.976Z,8.90
2022-08-23T17:11:03.230Z,8.48
2022-08-23T17:16:24.502Z,8.00
2022-08-23T17:21:45.165Z,8.02
2022-08-23T17:27:07.264Z,7.97
2022-08-23T17:32:28.461Z,8.13
2022-08-23T17:37:49.867Z,7.95
2022-08-23T17:43:12.174Z,8.48
2022-08-23T17:48:32.689Z,8.30
2022-08-23T17:53:53.507Z,8.32
2022-08-23T17:59:14.280Z,8.45
2022-08-23T18:04:35.678Z,7.75
2022-08-23T18:09:57.625Z,7.97
2022-08-23T18:15:18.705Z,7.70
2022-08-23T18:20:40.117Z,8.50
2022-08-23T18:26:06.588Z,8.20
2022-08-23T18:31:27.829Z,8.55
2022-08-23T18:36:48.844Z,8.85
2022-08-23T18:42:10.710Z,8.85
2022-08-23T18:47:31.489Z,8.65
2022-08-23T18:52:52.124Z,8.15
2022-08-23T18:58:13.240Z,8.35
2022-08-23T19:03:34.122Z,8.25
2022-08-23T19:08:56.032Z,8.27
2022-08-23T19:14:16.745Z,8.73
2022-08-23T19:19:38.122Z,8.45
2022-08-23T19:24:59.048Z,8.43
2022-08-23T19:30:20.259Z,7.97
2022-08-23T19:35:41.341Z,7.70
2022-08-23T19:41:02.849Z,8.32
2022-08-23T19:46:23.725Z,8.10
2022-08-23T19:51:44.940Z,7.68
2022-08-23T19:57:08.160Z,7.72
2022-08-23T20:02:29.486Z,8.05
2022-08-23T20:07:50.065Z,7.93
2022-08-23T20:13:11.902Z,8.05
2022-08-23T20:18:32.782Z,8.10
2022-08-23T20:24:06.456Z,8.50
2022-08-23T20:29:27.423Z,8.13
2022-08-23T20:34:48.080Z,8.10
2022-08-23T20:40:10.859Z,8.30
2022-08-23T20:45:33.377Z,8.13
2022-08-23T20:50:54.035Z,7.90
2022-08-23T20:56:16.157Z,8.55
2022-08-23T21:01:36.884Z,8.68
2022-08-23T21:06:57.875Z,8.35
2022-08-23T21:12:19.440Z,8.30
2022-08-23T21:17:40.185Z,9.02
2022-08-23T21:23:01.017Z,8.70
2022-08-23T21:28:23.274Z,9.00
2022-08-23T21:33:45.141Z,8.63
2022-08-23T21:39:06.389Z,8.82
2022-08-23T21:44:27.020Z,8.07
2022-08-23T21:49:47.776Z,8.55
2022-08-23T21:55:09.128Z,8.20
2022-08-23T22:00:29.773Z,7.85
2022-08-23T22:05:50.788Z,7.53
2022-08-23T22:11:12.647Z,8.02
2022-08-23T22:16:33.504Z,8.10
2022-08-23T22:21:54.336Z,8.10
2022-08-23T22:27:15.031Z,8.15
2022-08-23T22:32:35.710Z,8.18
2022-08-23T22:38:14.417Z,7.97
2022-08-23T22:43:35.780Z,7.60
2022-08-23T22:48:57.046Z,7.95
2022-08-23T22:54:18.123Z,7.80
2022-08-23T22:59:39.202Z,7.00
2022-08-23T23:05:00.213Z,7.63
2022-08-23T23:10:20.890Z,7.38
2022-08-23T23:15:41.585Z,7.68
2022-08-23T23:21:04.427Z,6.28
2022-08-23T23:26:25.486Z,6.97
2022-08-23T23:31:46.195Z,6.80
2022-08-23T23:37:06.810Z,6.60
2022-08-23T23:42:27.380Z,6.75
2022-08-23T23:47:49.471Z,7.13
2022-08-23T23:53:10.239Z,5.82
2022-08-23T23:58:31.479Z,6.25
